Time;durP1;ratioP1;P1;durP2;ratioP2;P2;SDS_P1;SDS_P2;PMS_P1;PMS_P2;Temp;Humidity;BMP_temperature;BMP_pressure;BME280_temperature;BME280_humidity;BME280_pressure;Samples;Min_cycle;Max_cycle;Signal;HPM_P1;HPM_P2
2021/05/27 00:01:58;;;;;;;26.60;13.75;;;10.70;99.90;;;;;;4162716;28;20125;-73
2021/05/27 00:03:59;;;;;;;23.45;12.73;;;10.70;99.90;;;;;;4162624;28;20560;-73
2021/05/27 00:05:59;;;;;;;33.75;12.40;;;10.60;99.90;;;;;;4162806;28;20072;-73
2021/05/27 00:08:00;;;;;;;38.15;14.50;;;10.50;99.90;;;;;;4161218;28;20083;-73
2021/05/27 00:10:03;;;;;;;27.67;12.95;;;10.50;99.90;;;;;;4162700;28;20026;-72
2021/05/27 00:12:04;;;;;;;27.50;12.85;;;10.50;99.90;;;;;;4163839;28;20037;-72
2021/05/27 00:14:05;;;;;;;20.05;11.52;;;10.50;99.90;;;;;;4164139;28;20034;-72
2021/05/27 00:16:05;;;;;;;26.15;13.10;;;10.50;99.90;;;;;;4163845;28;20029;-72
2021/05/27 00:18:06;;;;;;;31.60;13.63;;;10.50;99.90;;;;;;4163435;28;20504;-72
2021/05/27 00:20:09;;;;;;;21.15;10.68;;;10.50;99.90;;;;;;4163471;28;20079;-71
2021/05/27 00:22:09;;;;;;;27.35;12.40;;;10.50;99.90;;;;;;4163781;28;20109;-72
2021/05/27 00:24:10;;;;;;;25.63;13.27;;;10.50;99.90;;;;;;4163758;28;20183;-73
2021/05/27 00:26:11;;;;;;;29.50;12.95;;;10.40;99.90;;;;;;4163374;28;20116;-72
2021/05/27 00:28:11;;;;;;;27.05;14.00;;;10.40;99.90;;;;;;4160385;28;20033;-72
2021/05/27 00:30:13;;;;;;;32.72;14.05;;;10.40;99.90;;;;;;4163672;28;20033;-72
2021/05/27 00:32:14;;;;;;;28.15;13.15;;;10.30;99.90;;;;;;4163618;28;20029;-72
2021/05/27 00:34:15;;;;;;;27.25;12.80;;;10.20;99.90;;;;;;4163374;28;20033;-72
2021/05/27 00:36:16;;;;;;;30.35;13.90;;;10.20;99.90;;;;;;4163247;28;20021;-72
2021/05/27 00:38:16;;;;;;;25.30;13.13;;;10.30;99.90;;;;;;4161941;28;20056;-72
2021/05/27 00:40:18;;;;;;;31.27;12.45;;;10.30;99.90;;;;;;4163648;28;20431;-72
2021/05/27 00:42:19;;;;;;;31.10;15.95;;;10.20;99.90;;;;;;4163059;28;20029;-72
2021/05/27 00:44:23;;;;;;;27.17;12.73;;;10.10;99.90;;;;;;4163263;28;20028;-73
2021/05/27 00:46:24;;;;;;;24.75;13.50;;;10.10;99.90;;;;;;4163256;28;20022;-72
2021/05/27 00:50:43;;;;;;;26.70;13.30;;;10.00;99.90;;;;;;4162108;28;20503;-73
2021/05/27 00:52:44;;;;;;;26.92;12.50;;;10.00;99.90;;;;;;4154989;28;20029;-73
2021/05/27 00:54:48;;;;;;;27.50;12.95;;;10.00;99.90;;;;;;4162376;28;20037;-73
2021/05/27 00:56:51;;;;;;;30.08;12.50;;;9.90;99.90;;;;;;4161876;28;20087;-73
2021/05/27 00:58:53;;;;;;;28.08;10.75;;;9.90;99.90;;;;;;4162220;28;20056;-73
2021/05/27 01:00:53;;;;;;;31.38;12.35;;;9.90;99.90;;;;;;4160527;28;20039;-73
2021/05/27 01:02:54;;;;;;;30.23;13.10;;;10.00;99.90;;;;;;4160078;28;20155;-73
2021/05/27 01:04:55;;;;;;;33.22;14.55;;;9.90;99.90;;;;;;4176730;28;20036;-72
2021/05/27 01:06:56;;;;;;;28.50;13.43;;;9.90;99.90;;;;;;4162411;28;20033;-73
2021/05/27 01:08:57;;;;;;;23.67;11.75;;;9.90;99.90;;;;;;4161572;28;20045;-73
2021/05/27 01:10:58;;;;;;;30.15;11.68;;;9.80;99.90;;;;;;4162869;28;20100;-73
2021/05/27 01:12:59;;;;;;;23.40;11.63;;;9.90;99.90;;;;;;4163127;28;20063;-73
2021/05/27 01:17:18;;;;;;;30.70;14.35;;;9.70;99.90;;;;;;4161943;28;20036;-72
2021/05/27 01:19:19;;;;;;;28.42;10.38;;;9.70;99.90;;;;;;4159867;28;20030;-73
2021/05/27 01:21:19;;;;;;;28.08;11.20;;;9.60;99.90;;;;;;4161658;28;20033;-72
2021/05/27 01:23:22;;;;;;;24.05;12.93;;;9.60;99.90;;;;;;4161708;28;20041;-72
2021/05/27 01:25:23;;;;;;;29.98;12.80;;;9.70;99.90;;;;;;4162939;28;20049;-72
2021/05/27 01:27:24;;;;;;;30.17;13.75;;;9.60;99.90;;;;;;4159685;28;20033;-72
2021/05/27 01:29:25;;;;;;;27.08;12.35;;;9.50;99.90;;;;;;4160047;28;20595;-72
2021/05/27 01:31:28;;;;;;;28.70;14.43;;;9.50;99.90;;;;;;4156251;28;20029;-72
2021/05/27 01:33:29;;;;;;;38.40;15.35;;;9.50;99.90;;;;;;4160357;28;20103;-72
2021/05/27 01:35:30;;;;;;;25.98;11.70;;;9.40;99.90;;;;;;4162898;28;20516;-73
2021/05/27 01:37:32;;;;;;;25.55;13.88;;;9.40;99.90;;;;;;4162426;28;20103;-72
2021/05/27 01:39:32;;;;;;;23.85;12.60;;;9.40;99.90;;;;;;4162562;28;20039;-72
2021/05/27 01:41:33;;;;;;;26.45;13.45;;;9.40;99.90;;;;;;4162341;28;20120;-72
2021/05/27 01:43:33;;;;;;;31.17;14.02;;;9.40;99.90;;;;;;4162660;28;20087;-72
2021/05/27 01:45:35;;;;;;;30.42;12.93;;;9.50;99.90;;;;;;4168843;28;20052;-72
2021/05/27 01:47:36;;;;;;;28.15;14.00;;;9.50;99.90;;;;;;4162817;28;20428;-72
2021/05/27 01:49:40;;;;;;;25.17;12.77;;;9.50;99.90;;;;;;4162469;28;20032;-72
2021/05/27 01:51:50;;;;;;;21.45;10.40;;;9.40;99.90;;;;;;4162602;28;20472;-72
2021/05/27 01:53:51;;;;;;;29.00;12.55;;;9.50;99.90;;;;;;4162383;28;20030;-72
2021/05/27 01:55:52;;;;;;;30.60;12.23;;;9.40;99.90;;;;;;4158314;28;20508;-73
2021/05/27 01:57:54;;;;;;;32.15;15.27;;;9.40;99.90;;;;;;4155629;28;20061;-73
2021/05/27 01:59:55;;;;;;;27.48;12.45;;;9.40;99.90;;;;;;4161340;28;20038;-73
2021/05/27 02:01:56;;;;;;;33.15;13.50;;;9.30;99.90;;;;;;4165254;28;20026;-72
2021/05/27 02:03:57;;;;;;;29.27;13.35;;;9.30;99.90;;;;;;4180982;28;20041;-73
2021/05/27 02:05:58;;;;;;;35.97;13.73;;;9.30;99.90;;;;;;4164174;28;20026;-72
2021/05/27 02:07:59;;;;;;;25.45;12.15;;;9.30;99.90;;;;;;4165713;28;20033;-72
2021/05/27 02:09:59;;;;;;;27.52;14.48;;;9.30;99.90;;;;;;4165962;28;20021;-72
2021/05/27 02:12:00;;;;;;;29.77;15.30;;;9.30;99.90;;;;;;4165886;28;20120;-72
2021/05/27 02:14:01;;;;;;;26.67;12.52;;;9.30;99.90;;;;;;4173969;28;20476;-72
2021/05/27 02:16:01;;;;;;;23.38;10.98;;;9.30;99.90;;;;;;4165388;28;20056;-72
2021/05/27 02:18:02;;;;;;;28.08;11.93;;;9.40;99.90;;;;;;4155392;28;20029;-72
2021/05/27 02:20:05;;;;;;;26.52;13.73;;;9.30;99.90;;;;;;4165043;28;20025;-72
2021/05/27 02:22:06;;;;;;;;;;;9.30;99.90;;;;;;4164409;28;20026;-71
2021/05/27 02:24:08;;;;;;;28.00;12.88;;;9.30;99.90;;;;;;4160911;28;19960;-72
2021/05/27 02:26:08;;;;;;;23.40;10.77;;;9.40;99.90;;;;;;4164569;28;20033;-72
2021/05/27 02:28:09;;;;;;;26.55;12.18;;;9.40;99.90;;;;;;4165478;28;20137;-72
2021/05/27 02:30:10;;;;;;;28.85;13.88;;;9.40;99.90;;;;;;4152094;28;20091;-72
2021/05/27 02:32:11;;;;;;;22.95;12.07;;;9.30;99.90;;;;;;4165444;28;20044;-72
2021/05/27 02:34:12;;;;;;;30.88;13.93;;;9.40;99.90;;;;;;4165200;28;20546;-72
2021/05/27 02:36:13;;;;;;;26.38;13.85;;;9.30;99.90;;;;;;4163704;28;20022;-73
2021/05/27 02:38:15;;;;;;;34.25;14.65;;;9.30;99.90;;;;;;4165312;28;20108;-72
2021/05/27 02:40:16;;;;;;;24.00;13.80;;;9.30;99.90;;;;;;4165530;28;20397;-72
2021/05/27 02:42:16;;;;;;;23.38;11.10;;;9.40;99.90;;;;;;4164939;28;20021;-72
2021/05/27 02:44:17;;;;;;;27.17;13.73;;;9.40;99.90;;;;;;4164888;28;20029;-72
2021/05/27 02:46:18;;;;;;;21.42;13.30;;;9.40;99.90;;;;;;4163324;28;20060;-72
2021/05/27 02:48:19;;;;;;;29.60;13.13;;;9.40;99.90;;;;;;4154660;28;20365;-72
2021/05/27 02:50:20;;;;;;;30.33;14.90;;;9.50;99.90;;;;;;4165262;28;20163;-72
2021/05/27 02:52:21;;;;;;;29.70;13.98;;;9.40;99.90;;;;;;4164963;28;20041;-72
2021/05/27 02:54:25;;;;;;;28.38;13.35;;;9.30;99.90;;;;;;4165235;28;20442;-72
2021/05/27 02:56:26;;;;;;;35.17;15.73;;;9.30;99.90;;;;;;4163736;28;20053;-72
2021/05/27 02:58:27;;;;;;;31.25;15.23;;;9.30;99.90;;;;;;4164591;28;20060;-73
2021/05/27 03:00:28;;;;;;;35.20;14.65;;;9.30;99.90;;;;;;4165166;28;20033;-72
2021/05/27 03:02:28;;;;;;;30.23;15.05;;;9.30;99.90;;;;;;4164996;28;20033;-72
2021/05/27 03:04:29;;;;;;;28.52;12.60;;;9.20;99.90;;;;;;4164823;28;20109;-72
2021/05/27 03:06:30;;;;;;;33.83;15.15;;;9.30;99.90;;;;;;4155824;28;20028;-72
2021/05/27 03:08:31;;;;;;;29.65;16.70;;;9.30;99.90;;;;;;4164304;28;20145;-72
2021/05/27 03:10:32;;;;;;;29.80;14.07;;;9.30;99.90;;;;;;4164732;28;20104;-72
2021/05/27 03:12:32;;;;;;;23.25;11.40;;;9.30;99.90;;;;;;4164725;28;20048;-72
2021/05/27 03:14:33;;;;;;;32.08;13.93;;;9.30;99.90;;;;;;4164858;28;20099;-72
2021/05/27 03:16:34;;;;;;;26.15;13.13;;;9.30;99.90;;;;;;4163202;28;20018;-72
2021/05/27 03:18:35;;;;;;;33.15;15.43;;;9.40;99.90;;;;;;4163482;28;20449;-72
2021/05/27 03:20:36;;;;;;;31.23;14.60;;;9.30;99.90;;;;;;4164661;28;20022;-72
2021/05/27 03:22:37;;;;;;;37.05;14.25;;;9.30;99.90;;;;;;4164606;28;20378;-72
2021/05/27 03:24:37;;;;;;;29.48;14.02;;;9.30;99.90;;;;;;4164519;28;20082;-72
2021/05/27 03:26:38;;;;;;;27.35;12.35;;;9.30;99.90;;;;;;4164474;28;20060;-72
2021/05/27 03:28:38;;;;;;;31.55;12.95;;;9.30;99.90;;;;;;4159501;28;20022;-72
2021/05/27 03:30:39;;;;;;;28.90;14.25;;;9.30;99.90;;;;;;4161718;28;21769;-72
2021/05/27 03:32:43;;;;;;;27.30;13.45;;;9.30;99.90;;;;;;4172284;28;20091;-72
2021/05/27 03:34:43;;;;;;;19.70;11.45;;;9.30;99.90;;;;;;4161993;28;20037;-72
2021/05/27 03:36:44;;;;;;;21.38;10.25;;;9.30;99.90;;;;;;4161570;28;20071;-72
2021/05/27 03:38:45;;;;;;;30.65;13.60;;;9.30;99.90;;;;;;4161899;28;20033;-72
2021/05/27 03:40:45;;;;;;;30.77;14.43;;;9.30;99.90;;;;;;4163300;28;20033;-72
2021/05/27 03:42:52;;;;;;;25.00;14.45;;;9.20;99.90;;;;;;4163281;28;20033;-72
2021/05/27 03:44:52;;;;;;;40.88;15.40;;;9.20;99.90;;;;;;4163068;28;20490;-72
2021/05/27 03:46:53;;;;;;;26.77;13.73;;;9.20;99.90;;;;;;4163342;28;20028;-72
2021/05/27 03:48:54;;;;;;;25.05;12.65;;;9.20;99.90;;;;;;4152927;28;20372;-72
2021/05/27 03:50:54;;;;;;;30.48;13.15;;;9.20;99.90;;;;;;4163254;28;20044;-72
2021/05/27 03:52:55;;;;;;;25.27;10.82;;;9.30;99.90;;;;;;4163180;28;20392;-72
2021/05/27 03:54:55;;;;;;;30.98;12.32;;;9.40;99.90;;;;;;4163255;28;20037;-72
2021/05/27 03:56:56;;;;;;;30.48;13.77;;;9.40;99.90;;;;;;4163063;28;20512;-72
2021/05/27 04:01:17;;;;;;;32.20;13.60;;;9.30;99.90;;;;;;4163892;28;20433;-72
2021/05/27 04:03:18;;;;;;;17.10;10.38;;;9.30;99.90;;;;;;4164020;28;20034;-73
2021/05/27 04:07:38;;;;;;;28.98;11.50;;;9.30;99.90;;;;;;4163912;28;20052;-72
2021/05/27 04:09:39;;;;;;;24.40;9.30;;;9.30;99.90;;;;;;4161808;28;20029;-72
2021/05/27 04:11:40;;;;;;;22.50;11.68;;;9.30;99.90;;;;;;4163896;28;20041;-72
2021/05/27 04:13:40;;;;;;;20.70;11.38;;;9.30;99.90;;;;;;4165746;28;20026;-72
2021/05/27 04:15:42;;;;;;;23.42;10.90;;;9.30;99.90;;;;;;4163795;28;20473;-72
2021/05/27 04:17:42;;;;;;;35.28;12.52;;;9.30;99.90;;;;;;4160585;28;20030;-72
2021/05/27 04:19:43;;;;;;;30.13;12.20;;;9.30;99.90;;;;;;4163811;28;20036;-72
2021/05/27 04:21:44;;;;;;;16.60;10.32;;;9.30;99.90;;;;;;4161979;28;20038;-72
2021/05/27 04:23:44;;;;;;;34.70;12.80;;;9.40;99.90;;;;;;4163120;28;20055;-72
2021/05/27 04:25:45;;;;;;;22.42;12.48;;;9.30;99.90;;;;;;4163303;28;20029;-72
2021/05/27 04:27:47;;;;;;;27.45;12.13;;;9.30;99.90;;;;;;4163737;28;20048;-72
2021/05/27 04:29:47;;;;;;;32.33;13.00;;;9.40;99.90;;;;;;4163575;28;20040;-72
2021/05/27 04:31:48;;;;;;;26.27;11.68;;;9.30;99.90;;;;;;4163325;28;20037;-72
2021/05/27 04:33:54;;;;;;;33.80;14.00;;;9.40;99.90;;;;;;4163766;28;20044;-72
2021/05/27 04:35:55;;;;;;;16.17;9.07;;;9.40;99.90;;;;;;4150436;28;20413;-72
2021/05/27 04:38:01;;;;;;;19.10;8.75;;;9.40;99.90;;;;;;4163603;28;20029;-72
2021/05/27 04:40:02;;;;;;;22.50;9.65;;;9.50;99.90;;;;;;4163133;28;20496;-72
2021/05/27 04:42:02;;;;;;;28.05;10.55;;;9.40;99.90;;;;;;4162211;28;20029;-72
2021/05/27 04:44:03;;;;;;;28.02;12.80;;;9.40;99.90;;;;;;4163263;28;20033;-72
2021/05/27 04:46:04;;;;;;;28.50;11.88;;;9.40;99.90;;;;;;4163651;28;20025;-72
2021/05/27 04:48:09;;;;;;;22.58;11.65;;;9.30;99.90;;;;;;4163577;28;20091;-72
2021/05/27 04:50:11;;;;;;;29.83;10.85;;;9.30;99.90;;;;;;4162721;28;20032;-72
2021/05/27 04:52:12;;;;;;;30.50;11.95;;;9.40;99.90;;;;;;4160189;28;20061;-72
2021/05/27 04:54:12;;;;;;;27.83;11.80;;;9.40;99.90;;;;;;4163208;28;20148;-72
2021/05/27 04:56:14;;;;;;;27.33;10.43;;;9.50;99.90;;;;;;4160078;28;20037;-72
2021/05/27 04:58:15;;;;;;;28.40;10.90;;;9.50;99.90;;;;;;4162701;28;20054;-72
2021/05/27 05:00:19;;;;;;;20.70;10.88;;;9.40;99.90;;;;;;4162758;28;20036;-72
2021/05/27 05:02:20;;;;;;;30.45;11.40;;;9.50;99.90;;;;;;4159147;28;20026;-75
2021/05/27 05:04:20;;;;;;;21.25;11.18;;;9.40;99.90;;;;;;4158616;28;20427;-75
2021/05/27 05:06:21;;;;;;;24.08;11.70;;;9.30;99.90;;;;;;4159611;28;20034;-75
2021/05/27 05:08:22;;;;;;;30.83;11.98;;;9.30;99.90;;;;;;4159320;28;20384;-75
2021/05/27 05:10:25;;;;;;;24.70;11.02;;;9.40;99.90;;;;;;4158759;28;20392;-75
2021/05/27 05:12:25;;;;;;;22.50;10.00;;;9.40;99.90;;;;;;4159961;28;20629;-75
2021/05/27 05:14:26;;;;;;;22.70;11.35;;;9.40;99.90;;;;;;4162760;28;20030;-75
2021/05/27 05:16:27;;;;;;;30.13;11.90;;;9.40;99.90;;;;;;4160008;28;20029;-75
2021/05/27 05:18:27;;;;;;;31.30;11.88;;;9.40;99.90;;;;;;4160138;28;20183;-75
2021/05/27 05:20:31;;;;;;;20.10;9.57;;;9.40;99.90;;;;;;4158266;28;20029;-76
2021/05/27 05:22:31;;;;;;;;;;;9.50;99.90;;;;;;4159785;28;20045;-75
2021/05/27 05:24:32;;;;;;;19.80;10.93;;;9.40;99.90;;;;;;4162790;28;20295;-75
2021/05/27 05:26:33;;;;;;;25.17;11.43;;;9.40;99.90;;;;;;4158917;28;20044;-75
2021/05/27 05:28:34;;;;;;;25.75;10.55;;;9.40;99.90;;;;;;4160900;28;20519;-75
2021/05/27 05:30:35;;;;;;;22.88;10.13;;;9.40;99.90;;;;;;4161816;28;20064;-75
2021/05/27 05:32:36;;;;;;;25.33;11.80;;;9.50;99.90;;;;;;4159322;28;20548;-75
2021/05/27 05:34:37;;;;;;;28.23;12.00;;;9.40;99.90;;;;;;4161621;28;20029;-74
2021/05/27 05:36:38;;;;;;;33.83;12.38;;;9.50;99.90;;;;;;4170878;28;20465;-75
2021/05/27 05:38:38;;;;;;;27.90;12.40;;;9.50;99.90;;;;;;4162720;28;20044;-75
2021/05/27 05:40:39;;;;;;;31.35;13.32;;;9.50;99.90;;;;;;4165846;28;20106;-75
2021/05/27 05:42:41;;;;;;;31.40;11.82;;;9.40;99.90;;;;;;4161883;28;20075;-75
2021/05/27 05:44:42;;;;;;;23.30;10.75;;;9.50;99.90;;;;;;4165781;28;20071;-74
2021/05/27 05:46:42;;;;;;;20.10;9.82;;;9.50;99.90;;;;;;4157378;28;20038;-74
2021/05/27 05:48:43;;;;;;;20.35;9.60;;;9.50;99.90;;;;;;4166183;28;20026;-75
2021/05/27 05:52:47;;;;;;;24.45;12.48;;;9.60;99.90;;;;;;4166114;28;20038;-75
2021/05/27 05:54:48;;;;;;;24.13;10.35;;;9.60;99.90;;;;;;4174973;28;20091;-75
2021/05/27 05:56:49;;;;;;;26.08;10.07;;;9.60;99.90;;;;;;4165558;28;20036;-75
2021/05/27 05:58:49;;;;;;;23.48;10.30;;;9.60;99.90;;;;;;4165694;28;20091;-75
2021/05/27 06:00:51;;;;;;;22.73;12.30;;;9.60;99.90;;;;;;4166089;28;20447;-75
2021/05/27 06:02:52;;;;;;;15.20;8.77;;;9.60;99.90;;;;;;4161724;28;20038;-75
2021/05/27 06:04:52;;;;;;;23.45;10.98;;;9.60;99.90;;;;;;4160206;28;20132;-75
2021/05/27 06:06:53;;;;;;;27.17;11.38;;;9.60;99.90;;;;;;4162551;28;20025;-75
2021/05/27 06:08:55;;;;;;;20.27;11.05;;;9.60;99.90;;;;;;4176115;28;20392;-76
2021/05/27 06:10:55;;;;;;;24.60;10.70;;;9.60;99.90;;;;;;4160760;28;20030;-75
2021/05/27 06:12:57;;;;;;;19.67;10.18;;;9.60;99.90;;;;;;4164660;28;20108;-75
2021/05/27 06:14:57;;;;;;;23.90;10.07;;;9.70;99.90;;;;;;4162789;28;20045;-75
2021/05/27 06:17:00;;;;;;;22.08;9.85;;;9.70;99.90;;;;;;4159717;28;21502;-75
2021/05/27 06:19:01;;;;;;;15.82;9.57;;;9.70;99.90;;;;;;4164557;28;20033;-75
2021/05/27 06:21:02;;;;;;;30.60;11.20;;;9.80;99.90;;;;;;4161725;28;20404;-75
2021/05/27 06:23:03;;;;;;;24.92;10.48;;;9.70;99.90;;;;;;4161646;28;20057;-75
2021/05/27 06:25:04;;;;;;;21.77;9.98;;;9.80;99.90;;;;;;4163345;28;20025;-75
2021/05/27 06:27:05;;;;;;;25.73;10.10;;;9.80;99.90;;;;;;4163908;28;20088;-75
2021/05/27 06:29:05;;;;;;;25.63;10.50;;;9.80;99.90;;;;;;4180157;28;20110;-75
2021/05/27 06:31:06;;;;;;;20.45;9.27;;;9.80;99.90;;;;;;4163052;28;20088;-72
2021/05/27 06:33:09;;;;;;;21.90;8.35;;;9.80;99.90;;;;;;4161212;28;20473;-72
2021/05/27 06:35:12;;;;;;;23.52;8.85;;;9.80;99.90;;;;;;4161190;28;20057;-72
2021/05/27 06:37:12;;;;;;;25.98;10.02;;;9.80;99.90;;;;;;4161990;28;20096;-72
2021/05/27 06:39:13;;;;;;;20.08;9.65;;;9.70;99.90;;;;;;4163510;28;20396;-72
2021/05/27 06:41:19;;;;;;;12.60;7.75;;;9.80;99.90;;;;;;4160910;28;20025;-72
2021/05/27 06:43:20;;;;;;;12.35;6.85;;;9.90;99.90;;;;;;4163596;28;20092;-72
2021/05/27 06:45:22;;;;;;;17.17;7.75;;;9.90;99.90;;;;;;4157299;28;20033;-72
2021/05/27 06:47:23;;;;;;;19.67;8.85;;;9.90;99.90;;;;;;4163331;28;20030;-70
2021/05/27 06:49:23;;;;;;;18.85;8.93;;;9.90;99.90;;;;;;4161954;28;20103;-72
2021/05/27 06:51:24;;;;;;;17.70;8.30;;;9.90;99.90;;;;;;4159323;28;20025;-72
2021/05/27 06:53:25;;;;;;;17.83;7.13;;;10.00;99.90;;;;;;4160200;28;20018;-72
2021/05/27 06:55:26;;;;;;;21.80;8.65;;;10.00;99.90;;;;;;4164044;28;20036;-72
2021/05/27 06:57:26;;;;;;;18.95;7.80;;;10.10;99.90;;;;;;4159103;28;20521;-72
2021/05/27 06:59:27;;;;;;;15.05;7.68;;;10.00;99.90;;;;;;4158252;28;20049;-72
2021/05/27 07:01:27;;;;;;;22.98;8.60;;;9.90;99.90;;;;;;4163533;28;20112;-72
2021/05/27 07:03:28;;;;;;;19.95;9.07;;;9.90;99.90;;;;;;4163429;28;20033;-72
2021/05/27 07:05:29;;;;;;;23.67;10.20;;;9.90;99.90;;;;;;4175977;28;20033;-72
2021/05/27 07:07:31;;;;;;;12.77;6.40;;;9.90;99.90;;;;;;4163361;28;20704;-72
2021/05/27 07:09:31;;;;;;;17.38;8.45;;;10.00;99.90;;;;;;4160572;28;20037;-72
2021/05/27 07:11:32;;;;;;;12.48;7.07;;;10.00;99.90;;;;;;4161260;28;20381;-72
2021/05/27 07:13:33;;;;;;;22.20;8.43;;;10.00;99.90;;;;;;4161596;28;20041;-72
2021/05/27 07:15:36;;;;;;;18.00;7.70;;;10.00;99.90;;;;;;4163995;28;20036;-72
2021/05/27 07:17:37;;;;;;;22.67;9.73;;;10.00;99.90;;;;;;4162617;28;20113;-72
2021/05/27 07:19:37;;;;;;;16.30;7.60;;;10.00;99.90;;;;;;4163732;28;20476;-72
2021/05/27 07:21:40;;;;;;;20.45;8.55;;;10.00;99.90;;;;;;4162434;28;20108;-72
2021/05/27 07:23:40;;;;;;;16.75;8.07;;;10.00;99.90;;;;;;4176322;28;20049;-73
2021/05/27 07:25:41;;;;;;;21.50;9.18;;;10.00;99.90;;;;;;4164000;28;20507;-72
2021/05/27 07:27:43;;;;;;;17.88;8.18;;;9.90;99.90;;;;;;4163896;28;20049;-72
2021/05/27 07:29:43;;;;;;;20.92;9.00;;;10.00;99.90;;;;;;4162498;28;20029;-72
2021/05/27 07:31:44;;;;;;;17.33;8.60;;;10.00;99.90;;;;;;4162476;28;20064;-72
2021/05/27 07:33:45;;;;;;;15.50;7.88;;;10.00;99.90;;;;;;4163674;28;20384;-72
2021/05/27 07:35:46;;;;;;;20.38;7.78;;;10.10;99.90;;;;;;4161789;28;20486;-72
2021/05/27 07:37:46;;;;;;;20.65;8.10;;;10.00;99.90;;;;;;4163560;28;20126;-72
2021/05/27 07:39:48;;;;;;;17.98;8.48;;;10.10;99.90;;;;;;4163600;28;20064;-72
2021/05/27 07:41:49;;;;;;;20.75;9.70;;;10.10;99.90;;;;;;4162253;28;20098;-72
2021/05/27 07:43:51;;;;;;;20.83;8.80;;;10.10;99.90;;;;;;4162328;28;20034;-72
2021/05/27 07:45:51;;;;;;;22.67;9.32;;;10.10;99.90;;;;;;4157624;28;20025;-77
2021/05/27 07:47:52;;;;;;;15.25;7.93;;;10.10;99.90;;;;;;4158463;28;20506;-77
2021/05/27 07:49:52;;;;;;;16.55;7.50;;;10.10;99.90;;;;;;4156975;28;20037;-77
2021/05/27 07:51:54;;;;;;;20.90;7.90;;;10.20;99.90;;;;;;4157146;28;20504;-78
2021/05/27 07:53:55;;;;;;;21.17;8.77;;;10.10;99.90;;;;;;4178047;28;20081;-77
2021/05/27 07:55:56;;;;;;;22.73;8.98;;;10.10;99.90;;;;;;4160908;28;20512;-77
2021/05/27 07:57:56;;;;;;;19.50;8.70;;;10.10;99.90;;;;;;4162692;28;20392;-77
2021/05/27 07:59:57;;;;;;;19.02;8.45;;;10.10;99.90;;;;;;4162804;28;20033;-77
2021/05/27 08:01:57;;;;;;;20.60;8.73;;;10.20;99.90;;;;;;4160667;28;20022;-77
2021/05/27 08:03:58;;;;;;;19.73;8.00;;;10.20;99.90;;;;;;4159547;28;20048;-77
2021/05/27 08:05:59;;;;;;;19.85;9.00;;;10.30;99.90;;;;;;4161319;28;20460;-77
2021/05/27 08:07:59;;;;;;;19.38;8.35;;;10.30;99.90;;;;;;4158014;28;20065;-77
2021/05/27 08:10:00;;;;;;;17.77;8.07;;;10.40;99.90;;;;;;4163050;28;20120;-77
2021/05/27 08:12:01;;;;;;;16.40;8.35;;;10.40;99.90;;;;;;4161960;28;20045;-77
2021/05/27 08:14:02;;;;;;;23.65;9.45;;;10.30;99.90;;;;;;4162567;28;20045;-77
2021/05/27 08:16:03;;;;;;;21.25;8.13;;;10.30;99.90;;;;;;4157720;28;20017;-80
2021/05/27 08:18:03;;;;;;;17.23;8.43;;;10.30;99.90;;;;;;4161678;28;20516;-77
2021/05/27 08:20:06;;;;;;;16.95;9.15;;;10.10;99.90;;;;;;4171635;28;20025;-77
2021/05/27 08:22:09;;;;;;;14.00;7.93;;;10.10;99.90;;;;;;4170339;28;20539;-77
2021/05/27 08:24:09;;;;;;;19.60;9.15;;;10.20;99.90;;;;;;4161638;28;20040;-77
2021/05/27 08:26:10;;;;;;;22.10;8.35;;;10.20;99.90;;;;;;4163223;28;20025;-77
2021/05/27 08:28:11;;;;;;;17.75;8.40;;;10.30;99.90;;;;;;4160070;28;20413;-77
2021/05/27 08:30:13;;;;;;;24.77;9.48;;;10.30;99.90;;;;;;4162754;28;20095;-77
2021/05/27 08:32:13;;;;;;;16.48;7.53;;;10.30;99.90;;;;;;4164553;28;20483;-77
2021/05/27 08:34:14;;;;;;;17.33;8.43;;;10.30;99.90;;;;;;4162411;28;20083;-78
2021/05/27 08:36:15;;;;;;;22.17;9.63;;;10.30;99.90;;;;;;4158625;28;20100;-77
2021/05/27 08:38:16;;;;;;;23.10;9.45;;;10.30;99.90;;;;;;4157485;28;20025;-77
2021/05/27 08:40:17;;;;;;;19.15;8.80;;;10.20;99.90;;;;;;4175221;28;20017;-78
2021/05/27 08:42:17;;;;;;;17.73;8.18;;;10.20;99.90;;;;;;4161655;28;20120;-77
2021/05/27 08:44:19;;;;;;;22.95;8.70;;;10.20;99.90;;;;;;4162527;28;20033;-77
2021/05/27 08:46:24;;;;;;;26.90;11.52;;;10.20;99.90;;;;;;4160332;28;20151;-78
2021/05/27 08:48:25;;;;;;;23.05;8.85;;;10.20;99.90;;;;;;4161619;28;20033;-77
2021/05/27 08:50:31;;;;;;;21.63;8.65;;;10.20;99.90;;;;;;4161798;28;20326;-77
2021/05/27 08:52:32;;;;;;;25.02;9.15;;;10.10;99.90;;;;;;4160986;28;20455;-77
2021/05/27 08:54:33;;;;;;;20.90;8.73;;;10.10;99.90;;;;;;4160163;28;20025;-77
2021/05/27 08:56:34;;;;;;;28.30;9.57;;;10.20;99.90;;;;;;4161604;28;20067;-77
2021/05/27 08:58:35;;;;;;;24.15;9.40;;;10.20;99.90;;;;;;4162390;28;20041;-78
2021/05/27 09:00:36;;;;;;;20.90;9.55;;;10.30;99.90;;;;;;4162855;28;20164;-77
2021/05/27 09:03:06;;;;;;;24.77;8.38;;;10.40;99.90;;;;;;4161271;28;20029;-77
2021/05/27 09:05:15;;;;;;;17.63;7.93;;;10.50;99.90;;;;;;4126322;28;20068;-77
2021/05/27 09:07:16;;;;;;;28.67;9.38;;;10.60;99.90;;;;;;4177913;28;20108;-77
2021/05/27 09:09:16;;;;;;;17.30;8.23;;;10.60;99.90;;;;;;4161528;28;20036;-78
2021/05/27 09:11:24;;;;;;;19.23;10.23;;;10.50;99.90;;;;;;4162846;28;20112;-77
2021/05/27 09:13:25;;;;;;;21.95;8.73;;;10.50;99.90;;;;;;4163021;28;20075;-78
2021/05/27 09:15:25;;;;;;;20.48;8.65;;;10.50;99.90;;;;;;4174402;28;20037;-77
2021/05/27 09:17:27;;;;;;;18.38;8.30;;;10.50;99.90;;;;;;4158942;28;20033;-77
2021/05/27 09:19:28;;;;;;;19.98;8.55;;;10.50;99.90;;;;;;4162580;28;20056;-77
2021/05/27 09:21:42;;;;;;;30.35;8.68;;;10.50;99.90;;;;;;4171605;28;20032;-77
2021/05/27 09:23:50;;;;;;;21.73;9.65;;;10.50;99.90;;;;;;4161393;28;20092;-77
2021/05/27 09:25:58;;;;;;;24.67;9.15;;;10.50;99.90;;;;;;4156862;28;20034;-77
2021/05/27 09:28:00;;;;;;;30.08;9.30;;;10.50;99.90;;;;;;4158651;28;20068;-77
2021/05/27 09:30:00;;;;;;;21.23;10.23;;;10.50;99.90;;;;;;4158723;28;20033;-77
2021/05/27 09:32:05;;;;;;;25.02;10.10;;;10.50;99.90;;;;;;4161727;28;20056;-77
2021/05/27 09:34:10;;;;;;;20.05;8.95;;;10.50;99.90;;;;;;4163211;28;20194;-77
2021/05/27 09:36:17;;;;;;;17.42;8.02;;;10.50;99.90;;;;;;4160399;28;20057;-77
2021/05/27 09:38:27;;;;;;;19.50;10.00;;;10.60;99.90;;;;;;4160649;28;20046;-77
2021/05/27 09:40:36;;;;;;;20.67;7.65;;;10.70;99.90;;;;;;4156317;28;20029;-77
2021/05/27 09:42:49;;;;;;;26.35;10.00;;;10.70;99.90;;;;;;4175986;28;20040;-77
2021/05/27 09:44:51;;;;;;;21.65;8.70;;;10.80;99.90;;;;;;4161682;28;20095;-76
2021/05/27 09:46:53;;;;;;;16.80;7.43;;;10.90;99.90;;;;;;4173544;28;20454;-77
2021/05/27 09:49:08;;;;;;;26.05;9.77;;;11.10;99.90;;;;;;4152822;28;20028;-77
2021/05/27 09:51:10;;;;;;;19.92;9.02;;;11.20;99.90;;;;;;4171437;28;20021;-77
2021/05/27 09:53:13;;;;;;;21.65;8.25;;;11.20;99.90;;;;;;4156347;28;20037;-77
2021/05/27 09:55:19;;;;;;;15.95;8.63;;;11.30;99.90;;;;;;4158855;28;20030;-78
2021/05/27 09:57:29;;;;;;;17.30;9.23;;;11.50;99.90;;;;;;4160939;28;20381;-79
2021/05/27 09:59:37;;;;;;;23.05;9.43;;;11.70;99.90;;;;;;4174404;28;20059;-77
2021/05/27 10:01:40;;;;;;;21.52;9.95;;;11.80;99.90;;;;;;4159242;28;20026;-77
2021/05/27 10:03:41;;;;;;;20.00;8.27;;;11.90;99.90;;;;;;4159876;28;20044;-78
2021/05/27 10:05:47;;;;;;;19.20;8.25;;;11.90;99.90;;;;;;4158501;28;20496;-78
2021/05/27 10:07:52;;;;;;;24.38;9.82;;;12.00;99.90;;;;;;4173171;28;20036;-77
2021/05/27 10:09:53;;;;;;;24.42;10.55;;;12.00;99.90;;;;;;4160344;28;20159;-78
2021/05/27 10:11:54;;;;;;;20.42;8.98;;;12.00;99.90;;;;;;4160210;28;20041;-77
2021/05/27 10:13:55;;;;;;;26.00;10.02;;;11.90;99.90;;;;;;4158347;28;20034;-78
2021/05/27 10:15:55;;;;;;;24.30;9.02;;;12.00;99.90;;;;;;4161882;28;20113;-79
2021/05/27 10:18:00;;;;;;;21.20;9.00;;;12.00;99.90;;;;;;4165670;28;20036;-78
2021/05/27 10:20:08;;;;;;;21.10;8.95;;;12.10;99.90;;;;;;4162218;28;20480;-78
2021/05/27 10:22:09;;;;;;;27.35;11.50;;;12.10;99.90;;;;;;4162647;28;20357;-78
2021/05/27 10:24:10;;;;;;;27.42;14.05;;;12.10;99.90;;;;;;4165529;28;20060;-78
2021/05/27 10:26:11;;;;;;;15.98;9.32;;;12.20;99.90;;;;;;4165510;28;20072;-79
2021/05/27 10:28:16;;;;;;;23.33;10.45;;;12.10;99.90;;;;;;4165860;28;20021;-79
2021/05/27 10:30:19;;;;;;;27.33;11.55;;;12.00;99.90;;;;;;4165211;28;20033;-79
2021/05/27 10:32:21;;;;;;;22.58;10.35;;;11.90;99.90;;;;;;4163844;28;20067;-78
2021/05/27 10:34:41;;;;;;;22.23;11.00;;;11.80;99.90;;;;;;4165511;28;20091;-77
2021/05/27 10:36:43;;;;;;;20.33;8.68;;;11.60;99.90;;;;;;4164216;28;20444;-78
2021/05/27 10:38:50;;;;;;;23.67;10.20;;;11.40;99.90;;;;;;4177788;28;20053;-80